createdAt,value
2023-05-11T00:01:26.539Z,6.70
2023-05-11T00:03:59.748Z,7.20
2023-05-11T00:06:33.296Z,8.60
2023-05-11T00:09:06.710Z,8.10
2023-05-11T00:11:40.053Z,9.10
2023-05-11T00:14:13.210Z,7.30
2023-05-11T00:16:46.317Z,7.90
2023-05-11T00:19:19.772Z,8.40
2023-05-11T00:21:52.931Z,7.40
2023-05-11T00:24:26.142Z,7.90
2023-05-11T00:26:59.360Z,7.20
2023-05-11T00:29:32.518Z,7.30
2023-05-11T00:32:05.802Z,8.50
2023-05-11T00:34:38.926Z,9.20
2023-05-11T00:37:12.010Z,8.90
2023-05-11T00:39:45.213Z,6.80
2023-05-11T00:42:18.427Z,6.80
2023-05-11T00:44:51.570Z,7.20
2023-05-11T00:47:24.986Z,7.00
2023-05-11T00:49:58.783Z,7.00
2023-05-11T00:52:32.387Z,7.80
2023-05-11T00:55:06.053Z,6.60
2023-05-11T00:57:39.509Z,8.20
2023-05-11T01:00:15.890Z,7.50
2023-05-11T01:02:49.766Z,7.40
2023-05-11T01:05:23.419Z,10.60
2023-05-11T01:08:05.515Z,7.80
2023-05-11T01:10:48.207Z,7.40
2023-05-11T01:13:32.864Z,7.50
2023-05-11T01:16:16.776Z,7.70
2023-05-11T01:19:00.656Z,8.70
2023-05-11T01:21:37.482Z,10.00
2023-05-11T01:24:33.025Z,6.80
2023-05-11T01:27:32.068Z,9.20
2023-05-11T01:30:37.107Z,8.80
2023-05-11T01:33:16.184Z,7.40
2023-05-11T01:35:57.627Z,8.00
2023-05-11T01:38:39.786Z,11.70
2023-05-11T01:41:18.812Z,9.20
2023-05-11T01:44:01.581Z,8.50
2023-05-11T01:46:36.854Z,8.50
2023-05-11T01:49:12.293Z,9.70
2023-05-11T01:51:49.580Z,8.50
2023-05-11T01:54:26.945Z,8.80
2023-05-11T01:57:02.557Z,8.30
2023-05-11T01:59:38.271Z,11.40
2023-05-11T02:02:13.956Z,9.80
2023-05-11T02:04:48.798Z,8.30
2023-05-11T02:07:25.174Z,8.20
2023-05-11T02:09:59.910Z,7.60
2023-05-11T02:12:36.084Z,9.50
2023-05-11T02:15:12.481Z,9.40
2023-05-11T02:17:46.906Z,7.50
2023-05-11T02:20:21.509Z,9.20
2023-05-11T02:22:56.638Z,8.70
2023-05-11T02:25:32.005Z,9.50
2023-05-11T02:28:05.993Z,7.90
2023-05-11T02:30:48.144Z,7.80
2023-05-11T02:33:30.964Z,7.60
2023-05-11T02:36:08.144Z,8.20
2023-05-11T02:38:44.837Z,7.40
2023-05-11T02:41:27.082Z,9.60
2023-05-11T02:44:06.391Z,8.30
2023-05-11T02:46:41.579Z,7.60
2023-05-11T02:49:19.567Z,9.20
2023-05-11T02:51:55.787Z,8.80
2023-05-11T02:54:30.075Z,9.00
2023-05-11T02:57:03.966Z,11.40
2023-05-11T02:59:37.677Z,9.40
2023-05-11T03:02:11.089Z,7.40
2023-05-11T03:04:44.446Z,8.70
2023-05-11T03:07:17.676Z,9.60
2023-05-11T03:09:51.233Z,8.90
2023-05-11T03:12:27.492Z,9.50
2023-05-11T03:15:01.370Z,10.00
2023-05-11T03:17:36.306Z,9.40
2023-05-11T03:20:13.106Z,8.60
2023-05-11T03:22:48.133Z,9.40
2023-05-11T03:25:23.072Z,11.30
2023-05-11T03:27:58.510Z,11.30
2023-05-11T03:30:33.370Z,11.80
2023-05-11T03:33:06.872Z,9.60
2023-05-11T03:35:44.850Z,8.60
2023-05-11T03:38:21.615Z,8.80
2023-05-11T03:40:58.974Z,7.90
2023-05-11T03:43:36.187Z,9.20
2023-05-11T03:46:12.809Z,9.80
2023-05-11T03:48:47.125Z,9.70
2023-05-11T03:51:23.093Z,8.70
2023-05-11T03:53:56.369Z,9.90
2023-05-11T03:56:29.876Z,9.10
2023-05-11T03:59:03.867Z,9.50
2023-05-11T04:01:37.534Z,8.70
2023-05-11T04:04:10.822Z,7.80
2023-05-11T04:06:44.207Z,10.70
2023-05-11T04:09:20.670Z,9.20
2023-05-11T04:11:54.048Z,10.40
2023-05-11T04:14:27.905Z,10.30
2023-05-11T04:17:01.452Z,11.60
2023-05-11T04:19:34.594Z,9.70
2023-05-11T04:22:07.792Z,6.40
2023-05-11T04:24:40.956Z,8.80
2023-05-11T04:27:16.426Z,5.60
2023-05-11T04:29:49.686Z,10.30
2023-05-11T04:32:23.625Z,8.10
2023-05-11T04:34:57.266Z,11.00
2023-05-11T04:37:31.976Z,10.80
2023-05-11T04:40:07.568Z,11.10
2023-05-11T04:42:45.930Z,11.60
2023-05-11T04:45:22.812Z,10.80
2023-05-11T04:47:56.039Z,10.90
2023-05-11T04:50:29.617Z,9.70
2023-05-11T04:53:04.027Z,9.90
2023-05-11T04:55:37.355Z,8.90
2023-05-11T04:58:10.766Z,8.70
2023-05-11T05:00:44.055Z,9.60
2023-05-11T05:03:17.242Z,8.90
2023-05-11T05:05:50.651Z,10.40
2023-05-11T05:08:23.820Z,9.40
2023-05-11T05:10:57.082Z,7.80
2023-05-11T05:13:31.065Z,10.10
2023-05-11T05:16:04.536Z,9.40
2023-05-11T05:18:38.016Z,14.00
2023-05-11T05:21:11.467Z,11.60
2023-05-11T05:23:44.644Z,8.80
2023-05-11T05:26:17.801Z,8.20
2023-05-11T05:28:52.199Z,12.20
2023-05-11T05:31:37.785Z,10.80
2023-05-11T05:34:12.193Z,9.60
2023-05-11T05:36:46.478Z,14.30
2023-05-11T05:39:20.348Z,12.00
2023-05-11T05:41:53.965Z,12.90
2023-05-11T05:44:27.304Z,15.60
2023-05-11T05:47:01.239Z,7.90
2023-05-11T05:49:37.599Z,10.30
2023-05-11T05:52:13.641Z,11.10
2023-05-11T05:54:47.463Z,9.40
2023-05-11T05:57:21.070Z,9.90
2023-05-11T05:59:54.237Z,10.30
2023-05-11T06:02:27.557Z,11.00
2023-05-11T06:05:01.073Z,15.60
2023-05-11T06:07:34.874Z,11.40
2023-05-11T06:10:09.249Z,11.10
2023-05-11T06:12:42.560Z,7.70
2023-05-11T06:15:16.951Z,10.20
2023-05-11T06:17:53.431Z,8.10
2023-05-11T06:20:26.848Z,10.20
2023-05-11T06:23:00.935Z,13.30
2023-05-11T06:25:36.405Z,9.20
2023-05-11T06:28:09.979Z,12.60
2023-05-11T06:30:43.741Z,9.60
2023-05-11T06:33:17.707Z,12.20
2023-05-11T06:35:51.682Z,9.80
2023-05-11T06:38:24.951Z,10.70
2023-05-11T06:40:58.233Z,8.70
2023-05-11T06:43:31.498Z,9.20
2023-05-11T06:46:07.605Z,9.70
2023-05-11T06:48:40.793Z,9.20
2023-05-11T06:51:15.221Z,8.00
2023-05-11T06:53:49.255Z,8.80
2023-05-11T06:56:22.866Z,9.40
2023-05-11T06:58:56.277Z,10.10
2023-05-11T07:01:29.623Z,8.80
2023-05-11T07:04:03.166Z,9.10
2023-05-11T07:06:36.382Z,6.90
2023-05-11T07:09:10.045Z,8.20
2023-05-11T07:11:43.149Z,8.40
2023-05-11T07:14:16.329Z,10.70
2023-05-11T07:16:52.842Z,8.40
2023-05-11T07:19:26.398Z,7.30
2023-05-11T07:21:59.706Z,7.60
2023-05-11T07:24:32.911Z,9.10
2023-05-11T07:27:06.208Z,8.30
2023-05-11T07:29:39.333Z,8.40
2023-05-11T07:32:13.095Z,7.80
2023-05-11T07:34:46.639Z,8.80
2023-05-11T07:37:19.861Z,7.80
2023-05-11T07:39:54.424Z,7.50
2023-05-11T07:42:27.844Z,9.80
2023-05-11T07:45:01.257Z,9.90
2023-05-11T07:47:36.790Z,8.70
2023-05-11T07:50:12.731Z,7.70
2023-05-11T07:52:46.484Z,11.60
2023-05-11T07:55:20.502Z,11.20
2023-05-11T07:57:55.121Z,10.90
2023-05-11T08:00:28.673Z,7.70
2023-05-11T08:03:02.151Z,8.20
2023-05-11T08:05:37.885Z,8.70
2023-05-11T08:08:11.333Z,11.70
2023-05-11T08:10:44.708Z,14.20
2023-05-11T08:13:17.984Z,7.30
2023-05-11T08:15:51.309Z,10.10
2023-05-11T08:18:24.640Z,8.90
2023-05-11T08:20:57.791Z,10.50
2023-05-11T08:23:32.156Z,11.00
2023-05-11T08:26:07.199Z,10.20
2023-05-11T08:28:41.839Z,8.40
2023-05-11T08:31:15.136Z,7.90
2023-05-11T08:33:48.390Z,8.70
2023-05-11T08:36:21.644Z,5.90
2023-05-11T08:38:58.936Z,8.30
2023-05-11T08:41:32.608Z,9.10
2023-05-11T08:44:07.336Z,10.50
2023-05-11T08:46:46.794Z,8.70
2023-05-11T08:49:20.675Z,10.40
2023-05-11T08:51:53.910Z,7.00
2023-05-11T08:54:27.924Z,8.90
2023-05-11T08:57:02.266Z,8.20
2023-05-11T08:59:35.670Z,8.30
2023-05-11T09:02:11.772Z,10.80
2023-05-11T09:04:47.612Z,9.00
2023-05-11T09:07:23.000Z,8.10
2023-05-11T09:09:56.287Z,7.50
2023-05-11T09:12:30.048Z,6.10
2023-05-11T09:15:03.752Z,6.80
2023-05-11T09:17:36.908Z,6.20
2023-05-11T09:20:12.479Z,5.60
2023-05-11T09:22:48.205Z,6.60
2023-05-11T09:25:22.686Z,7.30
2023-05-11T09:27:56.237Z,7.40
2023-05-11T09:30:29.660Z,8.20
2023-05-11T09:33:03.920Z,6.40
2023-05-11T09:35:37.968Z,5.60
2023-05-11T09:38:14.244Z,5.20
2023-05-11T09:40:56.519Z,6.10
2023-05-11T09:43:31.860Z,4.60
2023-05-11T09:46:07.854Z,3.80
2023-05-11T09:48:41.262Z,4.40
2023-05-11T09:51:15.866Z,5.40
2023-05-11T09:53:49.069Z,4.70
2023-05-11T09:56:22.162Z,5.80
2023-05-11T09:58:58.313Z,4.20
2023-05-11T10:01:38.100Z,7.00
2023-05-11T10:04:22.138Z,5.10
2023-05-11T10:06:57.160Z,5.90
2023-05-11T10:09:30.591Z,6.70
2023-05-11T10:12:06.774Z,4.50
2023-05-11T10:14:40.060Z,5.00
2023-05-11T10:17:15.931Z,4.00
2023-05-11T10:19:50.296Z,5.60
2023-05-11T10:22:25.513Z,5.60
2023-05-11T10:25:00.875Z,4.40
2023-05-11T10:27:35.718Z,3.70
2023-05-11T10:30:13.395Z,4.20
2023-05-11T10:32:47.973Z,6.40
2023-05-11T10:35:22.075Z,5.80
2023-05-11T10:37:55.770Z,5.10
2023-05-11T10:40:29.540Z,4.40
2023-05-11T10:43:38.786Z,5.10
2023-05-11T10:46:31.142Z,3.30
2023-05-11T10:49:53.126Z,3.60
2023-05-11T10:52:58.240Z,4.50
2023-05-11T10:55:53.182Z,4.30
2023-05-11T10:58:49.006Z,5.30
2023-05-11T11:01:42.039Z,5.40
2023-05-11T11:04:16.354Z,6.50
2023-05-11T11:07:04.561Z,4.60
2023-05-11T11:09:56.481Z,5.80
2023-05-11T11:12:31.163Z,5.90
2023-05-11T11:15:07.147Z,5.70
2023-05-11T11:17:40.701Z,5.40
2023-05-11T11:20:51.186Z,6.10
2023-05-11T11:23:47.884Z,5.90
2023-05-11T11:26:50.417Z,5.20
2023-05-11T11:29:23.664Z,4.30
2023-05-11T11:31:57.157Z,4.40
2023-05-11T11:34:39.842Z,4.90
2023-05-11T11:37:15.032Z,5.40
2023-05-11T11:40:09.493Z,4.70
2023-05-11T11:42:48.276Z,3.90
2023-05-11T11:45:35.543Z,5.60
2023-05-11T11:48:24.007Z,5.30
2023-05-11T11:51:08.522Z,8.50
2023-05-11T11:54:07.815Z,5.80
2023-05-11T11:56:45.986Z,4.30
2023-05-11T11:59:19.571Z,6.80
2023-05-11T12:01:57.016Z,4.30
2023-05-11T12:04:57.649Z,5.20
2023-05-11T12:07:35.247Z,3.80
2023-05-11T12:10:11.302Z,4.30
2023-05-11T12:12:47.768Z,6.40
2023-05-11T12:15:32.334Z,5.70
2023-05-11T12:18:05.746Z,5.60
2023-05-11T12:20:38.949Z,5.70
2023-05-11T12:23:15.168Z,5.80
2023-05-11T12:26:03.357Z,6.10
2023-05-11T12:28:37.369Z,6.00
2023-05-11T12:31:10.835Z,5.90
2023-05-11T12:33:51.226Z,4.00
2023-05-11T12:36:24.615Z,5.20
2023-05-11T12:38:58.402Z,6.00
2023-05-11T12:41:32.095Z,6.00
2023-05-11T12:44:06.438Z,5.00
2023-05-11T12:46:40.153Z,8.80
2023-05-11T12:49:14.573Z,6.10
2023-05-11T12:52:01.480Z,6.00
2023-05-11T12:54:37.710Z,5.70
2023-05-11T12:57:25.680Z,6.20
2023-05-11T13:00:14.815Z,5.70
2023-05-11T13:02:54.096Z,7.10
2023-05-11T13:05:30.229Z,5.60
2023-05-11T13:08:05.273Z,5.00
2023-05-11T13:10:38.834Z,6.90
2023-05-11T13:13:12.073Z,5.00
2023-05-11T13:15:55.550Z,6.10
2023-05-11T13:18:28.791Z,5.80
2023-05-11T13:21:12.375Z,6.10
2023-05-11T13:23:52.065Z,6.80
2023-05-11T13:26:30.649Z,5.60
2023-05-11T13:29:10.168Z,6.30
2023-05-11T13:31:52.988Z,4.40
2023-05-11T13:34:27.842Z,6.50
2023-05-11T13:37:01.087Z,5.50
2023-05-11T13:39:34.279Z,6.80
2023-05-11T13:42:08.224Z,4.00
2023-05-11T13:44:41.419Z,6.30
2023-05-11T13:47:14.655Z,5.40
2023-05-11T13:49:47.924Z,5.80
2023-05-11T13:52:21.569Z,5.00
2023-05-11T13:54:54.935Z,5.00
2023-05-11T13:57:28.256Z,4.90
2023-05-11T14:00:22.957Z,5.40
2023-05-11T14:02:58.170Z,5.80
2023-05-11T14:05:31.834Z,5.70
2023-05-11T14:08:05.312Z,6.10
2023-05-11T14:10:38.503Z,5.10
2023-05-11T14:13:12.262Z,3.80
2023-05-11T14:15:45.612Z,6.10
2023-05-11T14:18:18.924Z,4.20
2023-05-11T14:20:52.229Z,8.50
2023-05-11T14:23:25.906Z,4.60
2023-05-11T14:25:59.754Z,4.60
2023-05-11T14:28:33.012Z,4.40
2023-05-11T14:31:06.956Z,5.40
2023-05-11T14:33:41.488Z,5.60
2023-05-11T14:36:14.799Z,7.40
2023-05-11T14:38:47.958Z,4.50
2023-05-11T14:41:21.361Z,5.80
2023-05-11T14:43:54.536Z,6.40
2023-05-11T14:46:28.009Z,4.80
2023-05-11T14:49:21.698Z,4.40
2023-05-11T14:51:55.390Z,4.80
2023-05-11T14:54:28.683Z,5.40
2023-05-11T14:57:01.982Z,5.60
2023-05-11T14:59:39.822Z,5.50
2023-05-11T15:02:17.870Z,4.40
2023-05-11T15:04:51.274Z,6.10
2023-05-11T15:07:24.417Z,6.10
2023-05-11T15:09:58.374Z,5.80
2023-05-11T15:12:31.853Z,6.60
2023-05-11T15:15:06.544Z,4.40
2023-05-11T15:17:39.958Z,5.40
2023-05-11T15:20:14.942Z,4.30
2023-05-11T15:22:48.189Z,5.00
2023-05-11T15:25:22.111Z,5.90
2023-05-11T15:27:55.885Z,4.60
2023-05-11T15:30:30.903Z,4.90
2023-05-11T15:33:08.650Z,5.50
2023-05-11T15:35:42.395Z,4.90
2023-05-11T15:38:15.644Z,6.30
2023-05-11T15:40:49.188Z,6.80
2023-05-11T15:43:22.534Z,5.00
2023-05-11T15:45:56.960Z,5.50
2023-05-11T15:48:30.780Z,4.70
2023-05-11T15:51:04.667Z,4.90
2023-05-11T15:53:38.145Z,4.70
2023-05-11T15:56:11.697Z,3.90
2023-05-11T15:58:46.339Z,6.40
2023-05-11T16:01:19.832Z,5.50
2023-05-11T16:03:53.090Z,4.90
2023-05-11T16:06:26.361Z,5.60
2023-05-11T16:08:59.551Z,5.70
2023-05-11T16:11:32.812Z,6.30
2023-05-11T16:14:06.126Z,5.50
2023-05-11T16:16:40.100Z,6.20
2023-05-11T16:19:13.419Z,6.40
2023-05-11T16:21:46.713Z,5.10
2023-05-11T16:24:19.861Z,5.70
2023-05-11T16:26:53.160Z,5.00
2023-05-11T16:29:26.559Z,5.40
2023-05-11T16:31:59.835Z,4.60
2023-05-11T16:34:35.115Z,6.20
2023-05-11T16:37:08.684Z,5.80
2023-05-11T16:39:41.962Z,4.70
2023-05-11T16:42:15.183Z,5.30
2023-05-11T16:44:48.627Z,6.00
2023-05-11T16:47:21.819Z,5.80
2023-05-11T16:49:55.080Z,6.60
2023-05-11T16:52:28.349Z,5.20
2023-05-11T16:55:01.485Z,5.70
2023-05-11T16:57:34.779Z,5.60
2023-05-11T17:00:11.522Z,5.90
2023-05-11T17:02:44.938Z,7.00
2023-05-11T17:05:21.551Z,6.90
2023-05-11T17:07:54.817Z,5.90
2023-05-11T17:10:28.673Z,4.20
2023-05-11T17:13:01.940Z,5.50
2023-05-11T17:15:35.106Z,4.90
2023-05-11T17:18:08.553Z,5.00
2023-05-11T17:20:42.123Z,5.10
2023-05-11T17:23:15.415Z,6.00
2023-05-11T17:25:48.717Z,7.40
2023-05-11T17:28:22.183Z,7.50
2023-05-11T17:30:55.726Z,7.20
2023-05-11T17:33:29.046Z,5.20
2023-05-11T17:36:02.319Z,6.10
2023-05-11T17:38:36.207Z,6.20
2023-05-11T17:41:09.976Z,5.00
2023-05-11T17:43:43.284Z,5.20
2023-05-11T17:46:16.637Z,5.20
2023-05-11T17:48:50.244Z,7.90
2023-05-11T17:51:30.679Z,5.20
2023-05-11T17:54:03.916Z,5.70
2023-05-11T17:56:37.614Z,6.60
2023-05-11T17:59:11.098Z,5.00
2023-05-11T18:01:45.965Z,6.50
2023-05-11T18:04:19.733Z,8.30
2023-05-11T18:06:53.509Z,5.40
2023-05-11T18:09:26.833Z,7.60
2023-05-11T18:12:00.212Z,4.80
2023-05-11T18:14:33.436Z,5.60
2023-05-11T18:17:07.156Z,5.40
2023-05-11T18:19:40.468Z,5.80
2023-05-11T18:22:14.432Z,4.80
2023-05-11T18:24:48.408Z,7.20
2023-05-11T18:27:21.953Z,6.20
2023-05-11T18:29:55.182Z,5.50
2023-05-11T18:32:28.431Z,6.80
2023-05-11T18:35:01.773Z,6.30
2023-05-11T18:37:36.312Z,5.30
2023-05-11T18:40:12.561Z,7.10
2023-05-11T18:42:47.195Z,5.20
2023-05-11T18:45:20.840Z,5.10
2023-05-11T18:47:54.412Z,7.40
2023-05-11T18:50:30.056Z,6.30
2023-05-11T18:53:03.311Z,6.60
2023-05-11T18:55:49.014Z,6.00
2023-05-11T18:58:25.935Z,5.40
2023-05-11T19:00:59.503Z,6.20
2023-05-11T19:03:32.813Z,7.80
2023-05-11T19:06:07.540Z,6.70
2023-05-11T19:08:40.801Z,5.90
2023-05-11T19:11:15.622Z,6.20
2023-05-11T19:13:50.609Z,6.70
2023-05-11T19:16:23.922Z,5.00
2023-05-11T19:18:57.203Z,8.60
2023-05-11T19:21:30.560Z,6.20
2023-05-11T19:24:03.740Z,5.80
2023-05-11T19:26:38.168Z,5.90
2023-05-11T19:29:13.420Z,6.40
2023-05-11T19:31:47.047Z,6.40
2023-05-11T19:34:20.302Z,7.00
2023-05-11T19:36:53.488Z,8.00
2023-05-11T19:39:26.828Z,6.50
2023-05-11T19:42:00.304Z,9.30
2023-05-11T19:44:34.648Z,6.30
2023-05-11T19:47:08.147Z,7.70
2023-05-11T19:49:41.576Z,5.10
2023-05-11T19:52:15.159Z,5.50
2023-05-11T19:54:48.497Z,8.20
2023-05-11T19:57:21.663Z,7.80
2023-05-11T20:00:09.714Z,6.70
2023-05-11T20:02:42.907Z,6.00
2023-05-11T20:05:16.554Z,5.20
2023-05-11T20:07:50.128Z,6.80
2023-05-11T20:10:24.714Z,7.20
2023-05-11T20:12:58.110Z,6.00
2023-05-11T20:15:34.030Z,6.50
2023-05-11T20:18:08.187Z,6.80
2023-05-11T20:20:41.728Z,5.50
2023-05-11T20:23:14.949Z,6.90
2023-05-11T20:25:48.429Z,7.20
2023-05-11T20:28:22.186Z,7.50
2023-05-11T20:30:55.448Z,5.80
2023-05-11T20:36:05.642Z,6.00
2023-05-11T20:38:39.396Z,6.70
2023-05-11T20:41:12.583Z,8.20
2023-05-11T20:43:45.708Z,6.80
2023-05-11T20:46:19.139Z,7.20
2023-05-11T20:48:52.359Z,7.00
2023-05-11T20:51:25.592Z,8.90
2023-05-11T20:53:58.715Z,7.60
2023-05-11T20:56:31.860Z,5.60
2023-05-11T20:59:05.039Z,5.40
2023-05-11T21:01:39.357Z,7.30
2023-05-11T21:04:12.624Z,7.80
2023-05-11T21:06:45.788Z,8.10
2023-05-11T21:09:19.351Z,7.70
2023-05-11T21:11:52.449Z,8.00
2023-05-11T21:14:25.679Z,8.60
2023-05-11T21:16:58.838Z,7.10
2023-05-11T21:19:32.003Z,7.70
2023-05-11T21:22:05.462Z,8.20
2023-05-11T21:24:39.110Z,6.80
2023-05-11T21:27:12.326Z,7.60
2023-05-11T21:29:45.455Z,6.40
2023-05-11T21:32:18.580Z,8.30
2023-05-11T21:34:51.854Z,7.30
2023-05-11T21:37:25.158Z,12.20
2023-05-11T21:39:58.466Z,8.40
2023-05-11T21:42:34.680Z,6.70
2023-05-11T21:45:10.628Z,7.40
2023-05-11T21:47:43.821Z,7.90
2023-05-11T21:50:18.176Z,7.10
2023-05-11T21:52:51.845Z,6.80
2023-05-11T21:55:25.545Z,9.70
2023-05-11T21:57:58.728Z,7.00
2023-05-11T22:00:33.017Z,8.80
2023-05-11T22:03:06.665Z,7.10
2023-05-11T22:05:39.959Z,6.70
2023-05-11T22:08:15.318Z,5.20
2023-05-11T22:10:49.062Z,7.80
2023-05-11T22:13:22.572Z,9.40
2023-05-11T22:15:55.700Z,6.60
2023-05-11T22:18:29.039Z,7.00
2023-05-11T22:21:02.784Z,7.30
2023-05-11T22:23:36.668Z,6.60
2023-05-11T22:26:09.811Z,6.50
2023-05-11T22:28:42.966Z,7.40
2023-05-11T22:31:16.123Z,7.00
2023-05-11T22:33:50.080Z,8.10
2023-05-11T22:36:23.291Z,8.50
2023-05-11T22:38:56.606Z,5.80
2023-05-11T22:41:30.755Z,5.70
2023-05-11T22:44:03.891Z,4.70
2023-05-11T22:46:37.151Z,8.40
2023-05-11T22:49:10.628Z,8.20
2023-05-11T22:51:44.162Z,7.80
2023-05-11T22:54:18.535Z,7.80
2023-05-11T22:56:52.278Z,9.80
2023-05-11T22:59:25.551Z,9.00
2023-05-11T23:02:01.670Z,7.50
2023-05-11T23:04:35.477Z,6.10
2023-05-11T23:07:12.149Z,7.90
2023-05-11T23:09:45.422Z,9.90
2023-05-11T23:12:18.586Z,10.30
2023-05-11T23:14:52.404Z,9.80
2023-05-11T23:17:25.713Z,9.00
2023-05-11T23:19:59.328Z,9.00
2023-05-11T23:22:32.507Z,11.10
2023-05-11T23:25:06.726Z,6.70
2023-05-11T23:27:39.924Z,8.50
2023-05-11T23:30:14.686Z,9.50
2023-05-11T23:32:48.187Z,9.10
2023-05-11T23:35:21.601Z,9.70
2023-05-11T23:37:54.800Z,11.80
2023-05-11T23:40:28.597Z,9.80
2023-05-11T23:43:01.893Z,10.30
2023-05-11T23:45:35.178Z,7.40
2023-05-11T23:48:09.271Z,9.50
2023-05-11T23:50:42.498Z,10.60
2023-05-11T23:53:15.649Z,12.20
2023-05-11T23:55:50.773Z,9.70
2023-05-11T23:58:24.331Z,12.20
